sensor_id;sensor_type;location;lat;lon;timestamp;temperature;humidity
18365;DHT22;9309;52.126;11.616;2023-06-22T00:02:01;21.50;69.40
18365;DHT22;9309;52.126;11.616;2023-06-22T00:04:28;21.40;69.70
18365;DHT22;9309;52.126;11.616;2023-06-22T00:06:55;21.40;70.30
18365;DHT22;9309;52.126;11.616;2023-06-22T00:09:22;21.40;70.50
18365;DHT22;9309;52.126;11.616;2023-06-22T00:11:50;21.30;71.00
18365;DHT22;9309;52.126;11.616;2023-06-22T00:14:17;21.40;71.00
18365;DHT22;9309;52.126;11.616;2023-06-22T00:16:44;21.40;70.70
18365;DHT22;9309;52.126;11.616;2023-06-22T00:19:14;21.30;70.60
18365;DHT22;9309;52.126;11.616;2023-06-22T00:21:41;21.40;70.50
18365;DHT22;9309;52.126;11.616;2023-06-22T00:24:08;21.40;70.90
18365;DHT22;9309;52.126;11.616;2023-06-22T00:26:35;21.30;71.60
18365;DHT22;9309;52.126;11.616;2023-06-22T00:29:04;21.30;71.90
18365;DHT22;9309;52.126;11.616;2023-06-22T00:31:30;21.20;71.40
18365;DHT22;9309;52.126;11.616;2023-06-22T00:33:57;21.20;71.00
18365;DHT22;9309;52.126;11.616;2023-06-22T00:36:25;21.20;70.50
18365;DHT22;9309;52.126;11.616;2023-06-22T00:38:52;21.20;69.90
18365;DHT22;9309;52.126;11.616;2023-06-22T00:41:19;21.20;69.50
18365;DHT22;9309;52.126;11.616;2023-06-22T00:43:45;21.20;70.20
18365;DHT22;9309;52.126;11.616;2023-06-22T00:46:14;21.10;70.30
18365;DHT22;9309;52.126;11.616;2023-06-22T00:48:42;21.10;70.40
18365;DHT22;9309;52.126;11.616;2023-06-22T00:51:10;21.10;70.80
18365;DHT22;9309;52.126;11.616;2023-06-22T00:53:38;21.00;71.30
18365;DHT22;9309;52.126;11.616;2023-06-22T00:56:06;20.80;71.30
18365;DHT22;9309;52.126;11.616;2023-06-22T00:58:35;20.90;71.00
18365;DHT22;9309;52.126;11.616;2023-06-22T01:01:02;20.80;70.60
18365;DHT22;9309;52.126;11.616;2023-06-22T01:03:30;20.90;71.10
18365;DHT22;9309;52.126;11.616;2023-06-22T01:06:02;21.00;70.40
18365;DHT22;9309;52.126;11.616;2023-06-22T01:08:39;21.10;70.00
18365;DHT22;9309;52.126;11.616;2023-06-22T01:11:16;21.10;69.10
18365;DHT22;9309;52.126;11.616;2023-06-22T01:13:50;21.00;69.90
18365;DHT22;9309;52.126;11.616;2023-06-22T01:16:22;21.00;69.80
18365;DHT22;9309;52.126;11.616;2023-06-22T01:18:54;20.90;70.40
18365;DHT22;9309;52.126;11.616;2023-06-22T01:21:24;20.90;70.30
18365;DHT22;9309;52.126;11.616;2023-06-22T01:24:05;21.00;69.90
18365;DHT22;9309;52.126;11.616;2023-06-22T01:26:39;21.00;69.50
18365;DHT22;9309;52.126;11.616;2023-06-22T01:29:11;21.10;69.30
18365;DHT22;9309;52.126;11.616;2023-06-22T01:31:39;20.90;69.80
18365;DHT22;9309;52.126;11.616;2023-06-22T01:34:08;20.90;69.30
18365;DHT22;9309;52.126;11.616;2023-06-22T01:36:36;20.90;69.60
18365;DHT22;9309;52.126;11.616;2023-06-22T01:39:05;20.90;67.30
18365;DHT22;9309;52.126;11.616;2023-06-22T01:41:35;20.80;68.60
18365;DHT22;9309;52.126;11.616;2023-06-22T01:44:03;20.90;68.20
18365;DHT22;9309;52.126;11.616;2023-06-22T01:46:33;21.00;68.20
18365;DHT22;9309;52.126;11.616;2023-06-22T01:49:01;20.90;67.80
18365;DHT22;9309;52.126;11.616;2023-06-22T01:51:28;21.00;67.80
18365;DHT22;9309;52.126;11.616;2023-06-22T01:53:58;21.00;68.20
18365;DHT22;9309;52.126;11.616;2023-06-22T01:56:26;20.90;67.80
18365;DHT22;9309;52.126;11.616;2023-06-22T01:59:09;20.90;68.00
18365;DHT22;9309;52.126;11.616;2023-06-22T02:01:42;20.90;67.50
18365;DHT22;9309;52.126;11.616;2023-06-22T02:04:13;20.90;68.30
18365;DHT22;9309;52.126;11.616;2023-06-22T02:06:46;20.90;67.40
18365;DHT22;9309;52.126;11.616;2023-06-22T02:09:17;20.70;67.50
18365;DHT22;9309;52.126;11.616;2023-06-22T02:11:46;20.60;69.50
18365;DHT22;9309;52.126;11.616;2023-06-22T02:14:15;20.60;69.30
18365;DHT22;9309;52.126;11.616;2023-06-22T02:16:43;20.60;68.90
18365;DHT22;9309;52.126;11.616;2023-06-22T02:19:10;20.60;68.10
18365;DHT22;9309;52.126;11.616;2023-06-22T02:21:37;20.40;68.00
18365;DHT22;9309;52.126;11.616;2023-06-22T02:24:04;20.40;68.40
18365;DHT22;9309;52.126;11.616;2023-06-22T02:26:32;20.40;67.90
18365;DHT22;9309;52.126;11.616;2023-06-22T02:29:01;20.50;67.10
18365;DHT22;9309;52.126;11.616;2023-06-22T02:31:28;20.50;67.40
18365;DHT22;9309;52.126;11.616;2023-06-22T02:33:57;20.60;66.70
18365;DHT22;9309;52.126;11.616;2023-06-22T02:36:24;20.40;67.90
18365;DHT22;9309;52.126;11.616;2023-06-22T02:38:53;20.50;68.40
18365;DHT22;9309;52.126;11.616;2023-06-22T02:41:21;20.40;68.80
18365;DHT22;9309;52.126;11.616;2023-06-22T02:43:48;20.20;68.40
18365;DHT22;9309;52.126;11.616;2023-06-22T02:46:19;20.30;68.40
18365;DHT22;9309;52.126;11.616;2023-06-22T02:48:46;20.40;68.40
18365;DHT22;9309;52.126;11.616;2023-06-22T02:51:14;20.30;69.00
18365;DHT22;9309;52.126;11.616;2023-06-22T02:53:41;20.40;68.60
18365;DHT22;9309;52.126;11.616;2023-06-22T02:56:11;20.50;68.80
18365;DHT22;9309;52.126;11.616;2023-06-22T02:58:38;20.50;68.40
18365;DHT22;9309;52.126;11.616;2023-06-22T03:01:08;20.40;68.50
18365;DHT22;9309;52.126;11.616;2023-06-22T03:03:38;20.30;68.50
18365;DHT22;9309;52.126;11.616;2023-06-22T03:06:06;20.40;67.50
18365;DHT22;9309;52.126;11.616;2023-06-22T03:08:34;20.40;68.70
18365;DHT22;9309;52.126;11.616;2023-06-22T03:11:01;20.50;68.60
18365;DHT22;9309;52.126;11.616;2023-06-22T03:13:28;20.60;68.60
18365;DHT22;9309;52.126;11.616;2023-06-22T03:15:54;20.70;67.80
18365;DHT22;9309;52.126;11.616;2023-06-22T03:18:21;20.70;68.30
18365;DHT22;9309;52.126;11.616;2023-06-22T03:20:48;20.80;67.90
18365;DHT22;9309;52.126;11.616;2023-06-22T03:23:15;20.80;67.50
18365;DHT22;9309;52.126;11.616;2023-06-22T03:25:43;20.70;67.90
18365;DHT22;9309;52.126;11.616;2023-06-22T03:28:11;20.70;67.60
18365;DHT22;9309;52.126;11.616;2023-06-22T03:30:38;20.70;67.70
18365;DHT22;9309;52.126;11.616;2023-06-22T03:33:04;20.60;68.20
18365;DHT22;9309;52.126;11.616;2023-06-22T03:35:33;20.80;67.80
18365;DHT22;9309;52.126;11.616;2023-06-22T03:38:00;20.80;67.80
18365;DHT22;9309;52.126;11.616;2023-06-22T03:40:27;21.00;67.00
18365;DHT22;9309;52.126;11.616;2023-06-22T03:42:55;21.00;67.00
18365;DHT22;9309;52.126;11.616;2023-06-22T03:45:22;21.10;67.20
18365;DHT22;9309;52.126;11.616;2023-06-22T03:47:48;21.10;67.60
18365;DHT22;9309;52.126;11.616;2023-06-22T03:50:15;21.10;67.20
18365;DHT22;9309;52.126;11.616;2023-06-22T03:52:42;21.20;67.60
18365;DHT22;9309;52.126;11.616;2023-06-22T03:55:10;21.30;66.90
18365;DHT22;9309;52.126;11.616;2023-06-22T03:57:36;21.30;67.00
18365;DHT22;9309;52.126;11.616;2023-06-22T04:00:06;21.30;67.00
18365;DHT22;9309;52.126;11.616;2023-06-22T04:02:38;21.20;67.70
18365;DHT22;9309;52.126;11.616;2023-06-22T04:05:06;21.00;68.10
18365;DHT22;9309;52.126;11.616;2023-06-22T04:07:32;21.10;67.60
18365;DHT22;9309;52.126;11.616;2023-06-22T04:09:59;21.10;67.50
18365;DHT22;9309;52.126;11.616;2023-06-22T04:12:26;21.20;66.70
18365;DHT22;9309;52.126;11.616;2023-06-22T04:14:53;21.20;67.10
18365;DHT22;9309;52.126;11.616;2023-06-22T04:17:21;21.10;67.50
18365;DHT22;9309;52.126;11.616;2023-06-22T04:19:50;21.10;67.50
18365;DHT22;9309;52.126;11.616;2023-06-22T04:22:17;21.20;67.40
18365;DHT22;9309;52.126;11.616;2023-06-22T04:24:44;21.30;66.60
18365;DHT22;9309;52.126;11.616;2023-06-22T04:27:11;21.20;67.00
18365;DHT22;9309;52.126;11.616;2023-06-22T04:29:38;21.20;67.30
18365;DHT22;9309;52.126;11.616;2023-06-22T04:32:14;20.90;68.60
18365;DHT22;9309;52.126;11.616;2023-06-22T04:34:42;21.10;68.40
18365;DHT22;9309;52.126;11.616;2023-06-22T04:37:09;21.30;68.00
18365;DHT22;9309;52.126;11.616;2023-06-22T04:39:41;21.30;67.70
18365;DHT22;9309;52.126;11.616;2023-06-22T04:42:08;21.30;68.00
18365;DHT22;9309;52.126;11.616;2023-06-22T04:44:35;21.60;67.40
18365;DHT22;9309;52.126;11.616;2023-06-22T04:47:02;21.70;67.40
18365;DHT22;9309;52.126;11.616;2023-06-22T04:49:32;22.10;66.40
18365;DHT22;9309;52.126;11.616;2023-06-22T04:52:02;22.30;65.70
18365;DHT22;9309;52.126;11.616;2023-06-22T04:54:29;22.50;64.80
18365;DHT22;9309;52.126;11.616;2023-06-22T04:56:58;22.20;65.70
18365;DHT22;9309;52.126;11.616;2023-06-22T04:59:26;22.20;65.10
18365;DHT22;9309;52.126;11.616;2023-06-22T05:01:54;22.00;66.00
18365;DHT22;9309;52.126;11.616;2023-06-22T05:04:21;22.00;66.20
18365;DHT22;9309;52.126;11.616;2023-06-22T05:06:49;22.10;66.20
18365;DHT22;9309;52.126;11.616;2023-06-22T05:09:17;22.10;66.70
18365;DHT22;9309;52.126;11.616;2023-06-22T05:11:44;22.20;66.40
18365;DHT22;9309;52.126;11.616;2023-06-22T05:16:54;22.10;66.90
18365;DHT22;9309;52.126;11.616;2023-06-22T05:19:24;22.10;67.70
18365;DHT22;9309;52.126;11.616;2023-06-22T05:21:59;22.20;67.00
18365;DHT22;9309;52.126;11.616;2023-06-22T05:24:31;22.10;67.10
18365;DHT22;9309;52.126;11.616;2023-06-22T05:27:28;22.00;67.30
18365;DHT22;9309;52.126;11.616;2023-06-22T05:29:54;22.00;68.00
18365;DHT22;9309;52.126;11.616;2023-06-22T05:32:21;21.90;68.30
18365;DHT22;9309;52.126;11.616;2023-06-22T05:34:48;21.90;68.00
18365;DHT22;9309;52.126;11.616;2023-06-22T05:37:14;22.00;68.00
18365;DHT22;9309;52.126;11.616;2023-06-22T05:39:42;22.00;68.40
18365;DHT22;9309;52.126;11.616;2023-06-22T05:42:09;22.20;67.90
18365;DHT22;9309;52.126;11.616;2023-06-22T05:44:35;22.30;67.70
18365;DHT22;9309;52.126;11.616;2023-06-22T05:47:03;22.30;68.00
18365;DHT22;9309;52.126;11.616;2023-06-22T05:49:30;22.40;67.70
18365;DHT22;9309;52.126;11.616;2023-06-22T05:51:58;22.50;67.10
18365;DHT22;9309;52.126;11.616;2023-06-22T05:54:27;22.80;66.30
18365;DHT22;9309;52.126;11.616;2023-06-22T05:56:55;22.70;66.70
18365;DHT22;9309;52.126;11.616;2023-06-22T05:59:21;22.70;66.80
18365;DHT22;9309;52.126;11.616;2023-06-22T06:01:48;22.70;66.90
18365;DHT22;9309;52.126;11.616;2023-06-22T06:04:16;22.90;66.80
18365;DHT22;9309;52.126;11.616;2023-06-22T06:06:43;22.80;66.40
18365;DHT22;9309;52.126;11.616;2023-06-22T06:09:10;22.70;66.80
18365;DHT22;9309;52.126;11.616;2023-06-22T06:11:37;22.80;66.70
18365;DHT22;9309;52.126;11.616;2023-06-22T06:14:05;23.00;66.40
18365;DHT22;9309;52.126;11.616;2023-06-22T06:16:32;22.80;66.70
18365;DHT22;9309;52.126;11.616;2023-06-22T06:18:59;23.10;66.30
18365;DHT22;9309;52.126;11.616;2023-06-22T06:21:26;23.10;66.30
18365;DHT22;9309;52.126;11.616;2023-06-22T06:23:52;23.10;65.50
18365;DHT22;9309;52.126;11.616;2023-06-22T06:26:19;23.30;65.50
18365;DHT22;9309;52.126;11.616;2023-06-22T06:28:52;23.30;65.60
18365;DHT22;9309;52.126;11.616;2023-06-22T06:31:20;23.30;65.50
18365;DHT22;9309;52.126;11.616;2023-06-22T06:33:46;23.30;66.00
18365;DHT22;9309;52.126;11.616;2023-06-22T06:36:13;23.30;65.50
18365;DHT22;9309;52.126;11.616;2023-06-22T06:38:40;23.40;65.50
18365;DHT22;9309;52.126;11.616;2023-06-22T06:41:07;23.60;64.70
18365;DHT22;9309;52.126;11.616;2023-06-22T06:43:34;23.70;64.20
18365;DHT22;9309;52.126;11.616;2023-06-22T06:46:00;23.60;64.40
18365;DHT22;9309;52.126;11.616;2023-06-22T06:48:29;23.70;64.30
18365;DHT22;9309;52.126;11.616;2023-06-22T06:50:56;23.70;64.40
18365;DHT22;9309;52.126;11.616;2023-06-22T06:53:23;23.70;64.40
18365;DHT22;9309;52.126;11.616;2023-06-22T06:55:49;23.90;64.20
18365;DHT22;9309;52.126;11.616;2023-06-22T06:58:16;24.00;63.30
18365;DHT22;9309;52.126;11.616;2023-06-22T07:00:43;23.70;65.10
18365;DHT22;9309;52.126;11.616;2023-06-22T07:03:10;23.60;65.40
18365;DHT22;9309;52.126;11.616;2023-06-22T07:05:38;23.70;64.30
18365;DHT22;9309;52.126;11.616;2023-06-22T07:08:04;23.90;64.10
18365;DHT22;9309;52.126;11.616;2023-06-22T07:10:31;24.00;63.90
18365;DHT22;9309;52.126;11.616;2023-06-22T07:12:58;24.00;64.10
18365;DHT22;9309;52.126;11.616;2023-06-22T07:15:24;24.20;63.20
18365;DHT22;9309;52.126;11.616;2023-06-22T07:17:51;24.00;63.80
18365;DHT22;9309;52.126;11.616;2023-06-22T07:20:18;24.20;63.50
18365;DHT22;9309;52.126;11.616;2023-06-22T07:22:46;24.30;63.30
18365;DHT22;9309;52.126;11.616;2023-06-22T07:25:13;24.50;63.10
18365;DHT22;9309;52.126;11.616;2023-06-22T07:27:44;24.80;62.50
18365;DHT22;9309;52.126;11.616;2023-06-22T07:30:12;25.00;61.90
18365;DHT22;9309;52.126;11.616;2023-06-22T07:32:39;24.80;61.20
18365;DHT22;9309;52.126;11.616;2023-06-22T07:35:06;24.60;61.30
18365;DHT22;9309;52.126;11.616;2023-06-22T07:37:33;24.40;62.50
18365;DHT22;9309;52.126;11.616;2023-06-22T07:40:02;24.30;62.20
18365;DHT22;9309;52.126;11.616;2023-06-22T07:42:31;24.20;62.50
18365;DHT22;9309;52.126;11.616;2023-06-22T07:44:59;24.30;62.80
18365;DHT22;9309;52.126;11.616;2023-06-22T07:47:26;24.60;61.80
18365;DHT22;9309;52.126;11.616;2023-06-22T07:49:53;24.80;60.70
18365;DHT22;9309;52.126;11.616;2023-06-22T07:52:23;25.00;60.70
18365;DHT22;9309;52.126;11.616;2023-06-22T07:54:50;25.00;60.20
18365;DHT22;9309;52.126;11.616;2023-06-22T07:57:18;25.20;59.90
18365;DHT22;9309;52.126;11.616;2023-06-22T07:59:45;25.40;59.20
18365;DHT22;9309;52.126;11.616;2023-06-22T08:02:11;25.50;58.20
18365;DHT22;9309;52.126;11.616;2023-06-22T08:04:39;25.60;58.70
18365;DHT22;9309;52.126;11.616;2023-06-22T08:07:06;25.80;57.00
18365;DHT22;9309;52.126;11.616;2023-06-22T08:09:33;25.80;57.10
18365;DHT22;9309;52.126;11.616;2023-06-22T08:12:00;26.10;56.10
18365;DHT22;9309;52.126;11.616;2023-06-22T08:14:29;26.10;55.70
18365;DHT22;9309;52.126;11.616;2023-06-22T08:16:56;26.20;54.50
18365;DHT22;9309;52.126;11.616;2023-06-22T08:19:22;26.10;55.00
18365;DHT22;9309;52.126;11.616;2023-06-22T08:21:49;25.90;55.40
18365;DHT22;9309;52.126;11.616;2023-06-22T08:24:16;26.30;54.90
18365;DHT22;9309;52.126;11.616;2023-06-22T08:26:42;26.20;55.10
18365;DHT22;9309;52.126;11.616;2023-06-22T08:29:09;26.30;54.50
18365;DHT22;9309;52.126;11.616;2023-06-22T08:31:37;26.20;54.80
18365;DHT22;9309;52.126;11.616;2023-06-22T08:34:04;26.10;55.30
18365;DHT22;9309;52.126;11.616;2023-06-22T08:36:30;26.00;55.40
18365;DHT22;9309;52.126;11.616;2023-06-22T08:39:03;25.70;56.10
18365;DHT22;9309;52.126;11.616;2023-06-22T08:41:30;25.60;56.50
18365;DHT22;9309;52.126;11.616;2023-06-22T08:43:56;25.50;56.30
18365;DHT22;9309;52.126;11.616;2023-06-22T08:46:23;25.60;56.20
18365;DHT22;9309;52.126;11.616;2023-06-22T08:48:57;25.90;54.60
18365;DHT22;9309;52.126;11.616;2023-06-22T08:51:23;26.20;54.30
18365;DHT22;9309;52.126;11.616;2023-06-22T08:53:50;26.40;54.10
18365;DHT22;9309;52.126;11.616;2023-06-22T08:56:17;26.60;53.20
18365;DHT22;9309;52.126;11.616;2023-06-22T08:58:44;26.70;52.90
18365;DHT22;9309;52.126;11.616;2023-06-22T09:01:10;26.80;53.00
18365;DHT22;9309;52.126;11.616;2023-06-22T09:03:37;26.30;53.70
18365;DHT22;9309;52.126;11.616;2023-06-22T09:06:05;26.40;53.90
18365;DHT22;9309;52.126;11.616;2023-06-22T09:08:34;26.50;54.20
18365;DHT22;9309;52.126;11.616;2023-06-22T09:11:01;26.60;54.70
18365;DHT22;9309;52.126;11.616;2023-06-22T09:13:30;26.70;53.70
18365;DHT22;9309;52.126;11.616;2023-06-22T09:15:56;26.90;52.30
18365;DHT22;9309;52.126;11.616;2023-06-22T09:18:23;26.80;53.20
18365;DHT22;9309;52.126;11.616;2023-06-22T09:20:50;26.90;52.90
18365;DHT22;9309;52.126;11.616;2023-06-22T09:23:18;27.10;52.30
18365;DHT22;9309;52.126;11.616;2023-06-22T09:25:44;27.10;52.20
18365;DHT22;9309;52.126;11.616;2023-06-22T09:28:13;27.10;52.80
18365;DHT22;9309;52.126;11.616;2023-06-22T09:30:39;27.10;52.60
18365;DHT22;9309;52.126;11.616;2023-06-22T09:33:06;27.40;51.90
18365;DHT22;9309;52.126;11.616;2023-06-22T09:35:33;27.50;51.90
18365;DHT22;9309;52.126;11.616;2023-06-22T09:37:59;27.60;51.10
18365;DHT22;9309;52.126;11.616;2023-06-22T09:40:27;28.10;50.80
18365;DHT22;9309;52.126;11.616;2023-06-22T09:42:54;27.70;50.80
18365;DHT22;9309;52.126;11.616;2023-06-22T09:45:21;27.40;51.90
18365;DHT22;9309;52.126;11.616;2023-06-22T09:47:47;27.40;52.30
18365;DHT22;9309;52.126;11.616;2023-06-22T09:50:14;27.30;52.00
18365;DHT22;9309;52.126;11.616;2023-06-22T09:52:41;27.60;51.30
18365;DHT22;9309;52.126;11.616;2023-06-22T09:55:10;27.80;51.40
18365;DHT22;9309;52.126;11.616;2023-06-22T09:57:38;28.10;51.40
18365;DHT22;9309;52.126;11.616;2023-06-22T10:00:05;28.70;50.10
18365;DHT22;9309;52.126;11.616;2023-06-22T10:02:36;29.00;49.20
18365;DHT22;9309;52.126;11.616;2023-06-22T10:05:03;29.40;48.70
18365;DHT22;9309;52.126;11.616;2023-06-22T10:07:30;29.00;48.70
18365;DHT22;9309;52.126;11.616;2023-06-22T10:09:56;28.60;49.60
18365;DHT22;9309;52.126;11.616;2023-06-22T10:12:23;28.60;49.90
18365;DHT22;9309;52.126;11.616;2023-06-22T10:14:51;28.80;49.10
18365;DHT22;9309;52.126;11.616;2023-06-22T10:17:17;29.10;48.90
18365;DHT22;9309;52.126;11.616;2023-06-22T10:19:44;28.90;49.20
18365;DHT22;9309;52.126;11.616;2023-06-22T10:22:11;29.40;47.50
18365;DHT22;9309;52.126;11.616;2023-06-22T10:24:37;29.60;48.10
18365;DHT22;9309;52.126;11.616;2023-06-22T10:27:09;30.30;46.50
18365;DHT22;9309;52.126;11.616;2023-06-22T10:29:36;30.70;44.90
18365;DHT22;9309;52.126;11.616;2023-06-22T10:32:05;31.80;42.90
18365;DHT22;9309;52.126;11.616;2023-06-22T10:34:32;32.40;42.00
18365;DHT22;9309;52.126;11.616;2023-06-22T10:36:59;33.80;39.60
18365;DHT22;9309;52.126;11.616;2023-06-22T10:39:25;34.20;38.60
18365;DHT22;9309;52.126;11.616;2023-06-22T10:41:52;35.00;37.50
18365;DHT22;9309;52.126;11.616;2023-06-22T10:44:19;35.80;35.90
18365;DHT22;9309;52.126;11.616;2023-06-22T10:46:46;35.80;36.00
18365;DHT22;9309;52.126;11.616;2023-06-22T10:49:14;35.40;36.50
18365;DHT22;9309;52.126;11.616;2023-06-22T10:51:40;35.00;37.50
18365;DHT22;9309;52.126;11.616;2023-06-22T10:54:07;35.30;36.80
18365;DHT22;9309;52.126;11.616;2023-06-22T10:56:33;36.00;36.30
18365;DHT22;9309;52.126;11.616;2023-06-22T10:59:00;34.40;37.90
18365;DHT22;9309;52.126;11.616;2023-06-22T11:01:27;32.60;40.50
18365;DHT22;9309;52.126;11.616;2023-06-22T11:03:54;32.30;41.00
18365;DHT22;9309;52.126;11.616;2023-06-22T11:06:22;33.60;39.90
18365;DHT22;9309;52.126;11.616;2023-06-22T11:09:02;35.30;37.20
18365;DHT22;9309;52.126;11.616;2023-06-22T11:11:35;35.20;37.10
18365;DHT22;9309;52.126;11.616;2023-06-22T11:14:01;35.80;35.40
18365;DHT22;9309;52.126;11.616;2023-06-22T11:16:28;36.20;34.90
18365;DHT22;9309;52.126;11.616;2023-06-22T11:18:55;36.40;34.70
18365;DHT22;9309;52.126;11.616;2023-06-22T11:21:22;35.70;35.60
18365;DHT22;9309;52.126;11.616;2023-06-22T11:23:49;34.00;37.90
18365;DHT22;9309;52.126;11.616;2023-06-22T11:26:16;33.30;39.30
18365;DHT22;9309;52.126;11.616;2023-06-22T11:28:42;32.40;40.80
18365;DHT22;9309;52.126;11.616;2023-06-22T11:31:09;31.40;42.60
18365;DHT22;9309;52.126;11.616;2023-06-22T11:33:36;31.70;43.20
18365;DHT22;9309;52.126;11.616;2023-06-22T11:36:03;32.40;41.10
18365;DHT22;9309;52.126;11.616;2023-06-22T11:38:31;32.80;40.80
18365;DHT22;9309;52.126;11.616;2023-06-22T11:40:59;35.20;37.00
18365;DHT22;9309;52.126;11.616;2023-06-22T11:43:25;36.60;34.70
18365;DHT22;9309;52.126;11.616;2023-06-22T11:45:52;36.20;35.10
18365;DHT22;9309;52.126;11.616;2023-06-22T11:48:21;37.30;33.60
18365;DHT22;9309;52.126;11.616;2023-06-22T11:50:48;38.30;33.00
18365;DHT22;9309;52.126;11.616;2023-06-22T11:53:14;38.70;31.80
18365;DHT22;9309;52.126;11.616;2023-06-22T11:55:43;41.10;28.90
18365;DHT22;9309;52.126;11.616;2023-06-22T11:58:10;40.90;29.00
18365;DHT22;9309;52.126;11.616;2023-06-22T12:00:37;40.00;30.10
18365;DHT22;9309;52.126;11.616;2023-06-22T12:03:04;40.30;29.90
18365;DHT22;9309;52.126;11.616;2023-06-22T12:05:31;38.40;32.10
18365;DHT22;9309;52.126;11.616;2023-06-22T12:07:57;34.60;36.90
18365;DHT22;9309;52.126;11.616;2023-06-22T12:10:25;35.10;36.80
18365;DHT22;9309;52.126;11.616;2023-06-22T12:12:55;36.20;35.30
18365;DHT22;9309;52.126;11.616;2023-06-22T12:15:23;35.10;36.20
18365;DHT22;9309;52.126;11.616;2023-06-22T12:17:49;34.30;37.60
18365;DHT22;9309;52.126;11.616;2023-06-22T12:20:16;34.60;37.60
18365;DHT22;9309;52.126;11.616;2023-06-22T12:22:43;35.10;36.80
18365;DHT22;9309;52.126;11.616;2023-06-22T12:25:10;36.70;34.30
18365;DHT22;9309;52.126;11.616;2023-06-22T12:27:37;37.50;33.40
18365;DHT22;9309;52.126;11.616;2023-06-22T12:30:06;37.10;33.80
18365;DHT22;9309;52.126;11.616;2023-06-22T12:32:32;38.80;31.90
18365;DHT22;9309;52.126;11.616;2023-06-22T12:34:59;37.70;32.10
18365;DHT22;9309;52.126;11.616;2023-06-22T12:37:26;36.60;33.50
18365;DHT22;9309;52.126;11.616;2023-06-22T12:39:53;36.40;34.40
18365;DHT22;9309;52.126;11.616;2023-06-22T12:42:20;36.80;34.00
18365;DHT22;9309;52.126;11.616;2023-06-22T12:44:47;38.20;32.50
18365;DHT22;9309;52.126;11.616;2023-06-22T12:47:15;39.20;30.60
18365;DHT22;9309;52.126;11.616;2023-06-22T12:49:41;39.10;31.00
18365;DHT22;9309;52.126;11.616;2023-06-22T12:52:11;37.80;32.80
18365;DHT22;9309;52.126;11.616;2023-06-22T12:54:38;37.80;32.60
18365;DHT22;9309;52.126;11.616;2023-06-22T12:57:05;38.30;31.60
18365;DHT22;9309;52.126;11.616;2023-06-22T12:59:32;39.70;31.00
18365;DHT22;9309;52.126;11.616;2023-06-22T13:01:58;41.30;28.90
18365;DHT22;9309;52.126;11.616;2023-06-22T13:04:26;40.60;29.30
18365;DHT22;9309;52.126;11.616;2023-06-22T13:06:53;40.60;28.90
18365;DHT22;9309;52.126;11.616;2023-06-22T13:09:20;39.90;30.00
18365;DHT22;9309;52.126;11.616;2023-06-22T13:11:46;40.70;28.60
18365;DHT22;9309;52.126;11.616;2023-06-22T13:14:13;41.10;29.20
18365;DHT22;9309;52.126;11.616;2023-06-22T13:16:41;41.40;28.20
18365;DHT22;9309;52.126;11.616;2023-06-22T13:19:08;42.40;26.90
18365;DHT22;9309;52.126;11.616;2023-06-22T13:21:36;40.40;29.00
18365;DHT22;9309;52.126;11.616;2023-06-22T13:24:03;40.40;29.20
18365;DHT22;9309;52.126;11.616;2023-06-22T13:26:31;40.20;29.60
18365;DHT22;9309;52.126;11.616;2023-06-22T13:28:59;39.40;30.90
18365;DHT22;9309;52.126;11.616;2023-06-22T13:31:25;39.00;31.30
18365;DHT22;9309;52.126;11.616;2023-06-22T13:33:52;38.40;31.50
18365;DHT22;9309;52.126;11.616;2023-06-22T13:36:18;39.50;30.20
18365;DHT22;9309;52.126;11.616;2023-06-22T13:38:48;39.70;30.20
18365;DHT22;9309;52.126;11.616;2023-06-22T13:41:14;39.30;30.90
18365;DHT22;9309;52.126;11.616;2023-06-22T13:43:41;40.00;30.20
18365;DHT22;9309;52.126;11.616;2023-06-22T13:46:08;40.70;29.30
18365;DHT22;9309;52.126;11.616;2023-06-22T13:48:35;40.50;29.20
18365;DHT22;9309;52.126;11.616;2023-06-22T13:51:01;40.40;29.80
18365;DHT22;9309;52.126;11.616;2023-06-22T13:53:28;41.50;28.60
18365;DHT22;9309;52.126;11.616;2023-06-22T13:55:56;40.60;29.30
18365;DHT22;9309;52.126;11.616;2023-06-22T13:58:23;39.60;30.50
18365;DHT22;9309;52.126;11.616;2023-06-22T14:00:50;40.40;30.40
18365;DHT22;9309;52.126;11.616;2023-06-22T14:03:16;40.80;29.40
18365;DHT22;9309;52.126;11.616;2023-06-22T14:05:43;41.10;28.90
18365;DHT22;9309;52.126;11.616;2023-06-22T14:08:10;38.10;31.40
18365;DHT22;9309;52.126;11.616;2023-06-22T14:10:36;36.40;34.00
18365;DHT22;9309;52.126;11.616;2023-06-22T14:13:05;36.70;34.20
18365;DHT22;9309;52.126;11.616;2023-06-22T14:15:32;36.70;34.10
18365;DHT22;9309;52.126;11.616;2023-06-22T14:17:59;36.80;34.20
18365;DHT22;9309;52.126;11.616;2023-06-22T14:20:25;36.20;34.10
18365;DHT22;9309;52.126;11.616;2023-06-22T14:22:52;36.10;34.90
18365;DHT22;9309;52.126;11.616;2023-06-22T14:25:19;35.30;35.80
18365;DHT22;9309;52.126;11.616;2023-06-22T14:27:45;35.80;35.90
18365;DHT22;9309;52.126;11.616;2023-06-22T14:30:14;35.50;35.80
18365;DHT22;9309;52.126;11.616;2023-06-22T14:32:43;34.60;36.80
18365;DHT22;9309;52.126;11.616;2023-06-22T14:35:10;32.90;39.10
18365;DHT22;9309;52.126;11.616;2023-06-22T14:37:36;31.30;42.20
18365;DHT22;9309;52.126;11.616;2023-06-22T14:40:05;31.10;43.10
18365;DHT22;9309;52.126;11.616;2023-06-22T14:42:32;30.80;43.80
18365;DHT22;9309;52.126;11.616;2023-06-22T14:44:59;31.40;42.80
18365;DHT22;9309;52.126;11.616;2023-06-22T14:47:27;31.40;42.00
18365;DHT22;9309;52.126;11.616;2023-06-22T14:49:54;31.40;41.70
18365;DHT22;9309;52.126;11.616;2023-06-22T14:52:21;30.70;43.10
18365;DHT22;9309;52.126;11.616;2023-06-22T14:54:48;30.50;43.80
18365;DHT22;9309;52.126;11.616;2023-06-22T14:57:16;30.30;44.20
18365;DHT22;9309;52.126;11.616;2023-06-22T14:59:45;30.10;45.50
18365;DHT22;9309;52.126;11.616;2023-06-22T15:02:12;29.80;46.40
18365;DHT22;9309;52.126;11.616;2023-06-22T15:04:40;29.80;45.80
18365;DHT22;9309;52.126;11.616;2023-06-22T15:07:07;30.20;45.00
18365;DHT22;9309;52.126;11.616;2023-06-22T15:09:34;30.50;44.80
18365;DHT22;9309;52.126;11.616;2023-06-22T15:12:01;31.30;43.20
18365;DHT22;9309;52.126;11.616;2023-06-22T15:14:31;31.70;42.20
18365;DHT22;9309;52.126;11.616;2023-06-22T15:16:57;31.60;42.40
18365;DHT22;9309;52.126;11.616;2023-06-22T15:19:24;31.10;43.80
18365;DHT22;9309;52.126;11.616;2023-06-22T15:21:52;31.30;43.10
18365;DHT22;9309;52.126;11.616;2023-06-22T15:24:19;31.10;43.30
18365;DHT22;9309;52.126;11.616;2023-06-22T15:26:45;30.90;43.90
18365;DHT22;9309;52.126;11.616;2023-06-22T15:29:12;30.60;43.90
18365;DHT22;9309;52.126;11.616;2023-06-22T15:31:39;30.30;44.40
18365;DHT22;9309;52.126;11.616;2023-06-22T15:34:05;30.40;44.90
18365;DHT22;9309;52.126;11.616;2023-06-22T15:36:32;30.30;45.10